createdAt,value
2019-03-23T00:01:26.404Z,75.70
2019-03-23T00:03:54.959Z,75.70
2019-03-23T00:06:30.854Z,75.90
2019-03-23T00:08:53.790Z,76.80
2019-03-23T00:11:22.394Z,77.80
2019-03-23T00:13:50.944Z,78.00
2019-03-23T00:16:19.498Z,78.50
2019-03-23T00:18:48.067Z,78.90
2019-03-23T00:21:16.621Z,78.80
2019-03-23T00:23:45.185Z,78.80
2019-03-23T00:26:14.059Z,79.00
2019-03-23T00:28:42.622Z,78.90
2019-03-23T00:31:11.247Z,79.80
2019-03-23T00:33:39.816Z,80.90
2019-03-23T00:36:08.363Z,82.00
2019-03-23T00:38:36.864Z,82.50
2019-03-23T00:41:05.419Z,83.30
2019-03-23T00:43:34.180Z,84.20
2019-03-23T00:46:02.730Z,84.90
2019-03-23T00:48:31.283Z,85.90
2019-03-23T00:50:59.854Z,87.20
2019-03-23T00:53:28.791Z,88.10
2019-03-23T00:55:57.407Z,88.80
2019-03-23T00:58:25.955Z,89.60
2019-03-23T01:00:54.600Z,90.00
2019-03-23T01:03:23.155Z,90.40
2019-03-23T01:05:51.749Z,90.70
2019-03-23T01:08:20.312Z,90.80
2019-03-23T01:10:48.887Z,90.60
2019-03-23T01:13:17.469Z,90.50
2019-03-23T01:15:48.092Z,90.40
2019-03-23T01:18:16.259Z,90.40
2019-03-23T01:20:49.537Z,90.50
2019-03-23T01:23:15.054Z,90.60
2019-03-23T01:25:43.580Z,90.40
2019-03-23T01:28:12.147Z,90.30
2019-03-23T01:30:40.626Z,90.10
2019-03-23T01:33:09.534Z,89.90
2019-03-23T01:35:38.412Z,90.00
2019-03-23T01:38:06.995Z,89.60
2019-03-23T01:40:36.426Z,89.40
2019-03-23T01:43:05.029Z,89.60
2019-03-23T01:45:33.511Z,89.70
2019-03-23T01:48:02.091Z,89.90
2019-03-23T01:50:30.669Z,90.30
2019-03-23T01:52:59.238Z,90.80
2019-03-23T01:55:27.798Z,91.60
2019-03-23T01:57:56.387Z,92.20
2019-03-23T02:00:25.244Z,92.30
2019-03-23T02:02:53.795Z,92.50
2019-03-23T02:05:22.368Z,92.80
2019-03-23T02:07:50.919Z,93.30
2019-03-23T02:10:19.496Z,93.50
2019-03-23T02:12:48.046Z,93.60
2019-03-23T02:15:16.791Z,93.60
2019-03-23T02:17:45.344Z,93.30
2019-03-23T02:20:14.754Z,93.30
2019-03-23T02:22:43.422Z,93.30
2019-03-23T02:25:12.376Z,93.10
2019-03-23T02:27:40.919Z,92.80
2019-03-23T02:30:11.318Z,92.10
2019-03-23T02:32:39.857Z,92.00
2019-03-23T02:35:08.948Z,92.30
2019-03-23T02:37:37.516Z,92.70
2019-03-23T02:40:07.713Z,92.90
2019-03-23T02:42:36.353Z,93.30
2019-03-23T02:45:09.651Z,93.30
2019-03-23T02:47:38.230Z,93.70
2019-03-23T02:50:08.916Z,93.90
2019-03-23T02:52:38.086Z,94.00
2019-03-23T02:55:08.458Z,93.90
2019-03-23T02:57:36.960Z,93.30
2019-03-23T03:00:14.213Z,92.80
2019-03-23T03:02:42.799Z,92.30
2019-03-23T03:05:11.763Z,92.10
2019-03-23T03:07:43.266Z,91.90
2019-03-23T03:10:12.469Z,91.80
2019-03-23T03:12:41.016Z,91.80
2019-03-23T03:15:10.327Z,91.70
2019-03-23T03:17:39.314Z,91.70
2019-03-23T03:20:09.321Z,91.90
2019-03-23T03:22:37.893Z,92.50
2019-03-23T03:25:08.088Z,92.90
2019-03-23T03:27:36.706Z,93.50
2019-03-23T03:30:10.725Z,94.00
2019-03-23T03:32:39.280Z,94.20
2019-03-23T03:35:08.994Z,94.20
2019-03-23T03:37:37.564Z,94.30
2019-03-23T03:40:07.361Z,94.70
2019-03-23T03:42:35.949Z,95.10
2019-03-23T03:45:07.399Z,95.40
2019-03-23T03:47:35.996Z,95.60
2019-03-23T03:50:07.852Z,95.20
2019-03-23T03:52:36.431Z,95.30
2019-03-23T03:55:07.116Z,95.70
2019-03-23T03:57:35.712Z,96.10
2019-03-23T04:00:09.447Z,96.10
2019-03-23T04:02:38.573Z,96.10
2019-03-23T04:05:08.447Z,96.10
2019-03-23T04:07:37.003Z,96.10
2019-03-23T04:10:08.127Z,96.10
2019-03-23T04:12:36.693Z,96.30
2019-03-23T04:15:08.108Z,96.50
2019-03-23T04:17:36.727Z,96.20
2019-03-23T04:20:08.025Z,96.00
2019-03-23T04:22:36.601Z,95.70
2019-03-23T04:25:10.281Z,95.60
2019-03-23T04:27:38.941Z,95.60
2019-03-23T04:30:10.197Z,95.60
2019-03-23T04:32:38.813Z,95.70
2019-03-23T04:35:08.428Z,96.00
2019-03-23T04:37:37.355Z,95.80
2019-03-23T04:40:09.045Z,95.60
2019-03-23T04:42:37.620Z,95.20
2019-03-23T04:45:08.507Z,95.10
2019-03-23T04:47:37.087Z,94.90
2019-03-23T04:50:08.570Z,94.70
2019-03-23T04:52:37.138Z,94.30
2019-03-23T04:55:08.807Z,93.80
2019-03-23T04:57:37.647Z,93.30
2019-03-23T05:00:09.438Z,93.40
2019-03-23T05:02:38.011Z,93.60
2019-03-23T05:05:06.904Z,93.60
2019-03-23T05:07:35.474Z,93.80
2019-03-23T05:10:05.503Z,94.10
2019-03-23T05:12:34.093Z,94.20
2019-03-23T05:15:02.650Z,94.40
2019-03-23T05:17:31.198Z,95.10
2019-03-23T05:19:59.787Z,96.00
2019-03-23T05:22:28.403Z,96.70
2019-03-23T05:24:56.979Z,97.40
2019-03-23T05:27:25.529Z,97.90
2019-03-23T05:29:54.170Z,98.00
2019-03-23T05:32:22.845Z,97.70
2019-03-23T05:34:51.431Z,97.30
2019-03-23T05:37:19.983Z,97.00
2019-03-23T05:39:48.949Z,96.50
2019-03-23T05:42:17.503Z,96.30
2019-03-23T05:44:46.096Z,96.20
2019-03-23T05:47:14.652Z,95.70
2019-03-23T05:49:43.234Z,94.90
2019-03-23T05:52:11.958Z,95.00
2019-03-23T05:54:40.531Z,94.50
2019-03-23T05:57:09.147Z,94.60
2019-03-23T05:59:37.773Z,94.90
2019-03-23T06:02:06.442Z,95.20
2019-03-23T06:04:35.276Z,95.90
2019-03-23T06:07:03.920Z,95.70
2019-03-23T06:09:32.462Z,95.60
2019-03-23T06:12:01.213Z,95.40
2019-03-23T06:14:29.765Z,94.50
2019-03-23T06:16:58.419Z,93.80
2019-03-23T06:19:26.979Z,93.10
2019-03-23T06:21:55.555Z,92.20
2019-03-23T06:24:24.117Z,90.90
2019-03-23T06:26:52.711Z,90.30
2019-03-23T06:29:21.377Z,88.80
2019-03-23T06:31:49.928Z,86.70
2019-03-23T06:34:18.499Z,83.10
2019-03-23T06:36:47.052Z,80.90
2019-03-23T06:39:15.623Z,79.10
2019-03-23T06:41:44.195Z,74.50
2019-03-23T06:44:12.788Z,72.10
2019-03-23T06:46:41.339Z,68.90
2019-03-23T06:49:10.222Z,65.50
2019-03-23T06:51:38.776Z,63.10
2019-03-23T06:54:07.347Z,61.70
2019-03-23T06:56:35.903Z,58.10
2019-03-23T06:59:04.571Z,56.80
2019-03-23T07:01:33.127Z,56.50
2019-03-23T07:04:01.686Z,56.90
2019-03-23T07:06:30.267Z,60.00
2019-03-23T07:08:59.281Z,60.60
2019-03-23T07:11:27.866Z,60.70
2019-03-23T07:13:56.426Z,62.30
2019-03-23T07:16:25.036Z,61.70
2019-03-23T07:18:53.591Z,62.40
2019-03-23T07:21:22.271Z,58.70
2019-03-23T07:23:50.842Z,58.10
2019-03-23T07:26:19.416Z,56.60
2019-03-23T07:28:47.990Z,53.60
2019-03-23T07:31:16.593Z,51.10
2019-03-23T07:33:45.223Z,49.20
2019-03-23T07:36:13.783Z,47.80
2019-03-23T07:38:42.459Z,43.30
2019-03-23T07:41:11.031Z,43.50
2019-03-23T07:43:39.620Z,41.00
2019-03-23T07:46:08.180Z,40.00
2019-03-23T07:48:36.758Z,37.50
2019-03-23T07:51:05.331Z,35.50
2019-03-23T07:53:33.919Z,34.50
2019-03-23T07:56:02.500Z,31.40
2019-03-23T07:58:31.155Z,30.70
2019-03-23T08:00:59.783Z,29.90
2019-03-23T08:03:28.379Z,29.60
2019-03-23T08:05:56.947Z,28.10
2019-03-23T08:08:25.519Z,27.70
2019-03-23T08:10:54.164Z,27.60
2019-03-23T08:13:22.848Z,26.60
2019-03-23T08:15:51.599Z,26.60
2019-03-23T08:18:20.148Z,26.30
2019-03-23T08:20:48.731Z,25.00
2019-03-23T08:23:17.290Z,24.80
2019-03-23T08:25:45.905Z,23.70
2019-03-23T08:28:14.465Z,23.30
2019-03-23T08:30:43.101Z,23.40
2019-03-23T08:33:12.117Z,24.10
2019-03-23T08:35:40.669Z,22.90
2019-03-23T08:38:09.241Z,21.00
2019-03-23T08:40:37.968Z,20.80
2019-03-23T08:43:06.530Z,21.50
2019-03-23T08:45:35.121Z,22.10
2019-03-23T08:48:03.755Z,21.10
2019-03-23T08:50:32.399Z,22.30
2019-03-23T08:53:00.994Z,22.70
2019-03-23T08:55:29.551Z,22.50
2019-03-23T08:57:58.507Z,21.20
2019-03-23T09:00:27.067Z,21.60
2019-03-23T09:02:55.711Z,20.40
2019-03-23T09:05:24.312Z,20.30
2019-03-23T09:07:52.900Z,20.50
2019-03-23T09:10:21.459Z,19.40
2019-03-23T09:12:50.048Z,19.70
2019-03-23T09:15:18.604Z,20.10
2019-03-23T09:17:47.159Z,19.50
2019-03-23T09:20:15.876Z,19.60
2019-03-23T09:22:44.455Z,18.70
2019-03-23T09:25:13.108Z,19.30
2019-03-23T09:27:41.663Z,19.40
2019-03-23T09:30:13.607Z,19.20
2019-03-23T09:32:42.298Z,19.10
2019-03-23T09:35:10.962Z,18.50
2019-03-23T09:37:39.460Z,18.70
2019-03-23T09:40:10.957Z,18.80
2019-03-23T09:42:39.695Z,17.90
2019-03-23T09:45:09.026Z,18.60
2019-03-23T09:47:37.794Z,18.50
2019-03-23T09:50:09.090Z,18.00
2019-03-23T09:52:37.741Z,17.90
2019-03-23T09:55:09.472Z,17.60
